Home > Products > Valid Products > TAF

000
FTUS46 KPDT 211100
TAFRDM
TAF
KRDM 211120Z 2112/2212 VRB05KT P6SM SKC
     FM212100 32011KT P6SM SCT250
     FM220400 VRB04KT P6SM SKC=



000
FTUS46 KPDT 211100
TAFPSC
TAF
KPSC 211120Z 2112/2212 21005KT P6SM SKC
     FM211800 25009KT P6SM SCT100 BKN250
     FM220400 22004KT P6SM SKC=



000
FTUS46 KPDT 211100
TAFDLS
TAF
KDLS 211120Z 2112/2212 31011KT P6SM SKC
     FM211500 32014G20KT P6SM SCT250
     FM211800 32015G25KT P6SM BKN250
     FM220400 31010KT P6SM SKC=



000
FTUS46 KPDT 211100
TAFALW
TAF
KALW 211120Z 2112/2212 19007KT P6SM SCT090
     FM211800 23011G19KT P6SM SCT110 BKN250
     FM220400 20008KT P6SM SKC=



000
FTUS46 KPDT 211100
TAFPDT
TAF
KPDT 211120Z 2112/2212 14005KT P6SM SKC
     FM211500 25007KT P6SM SCT250
     FM211800 29012G20KT P6SM BKN250
     FM220500 20008KT P6SM SCT150=



000
FTUS46 KPDT 211100
TAFYKM
TAF
KYKM 211120Z 2112/2212 30007KT P6SM SCT250
     FM211800 31011KT P6SM BKN250=



000
FTUS46 KPDT 210500
TAFPSC
TAF
KPSC 210520Z 2106/2206 21005KT P6SM SKC
     FM211800 25009KT P6SM SCT250=



000
FTUS46 KPDT 210500
TAFRDM
TAF
KRDM 210520Z 2106/2206 VRB05KT P6SM SKC
     FM211800 32012KT P6SM SCT250=



000
FTUS46 KPDT 210500
TAFYKM
TAF
KYKM 210520Z 2106/2206 30007KT P6SM SKC
     FM211800 31008KT P6SM SCT250=



000
FTUS46 KPDT 210500
TAFPDT
TAF
KPDT 210520Z 2106/2206 27012KT P6SM SKC
     FM210900 18006KT P6SM SKC
     FM211800 28012G20KT P6SM SCT250=



000
FTUS46 KPDT 210500
TAFDLS
TAF
KDLS 210520Z 2106/2206 31012KT P6SM SKC
     FM211800 32015G25KT P6SM SCT250=



000
FTUS46 KPDT 210500
TAFALW
TAF
KALW 210520Z 2106/2206 19007KT P6SM SKC
     FM211800 23011G19KT P6SM SCT250=



000
FTUS46 KPDT 210300 AAA
TAFYKM
TAF AMD
KYKM 210317Z 2103/2124 33012G22KT P6SM SKC
     FM210600 31008KT P6SM SKC
     FM211200 28005KT P6SM SKC
     FM211800 VRB05KT P6SM SCT250=



000
FTUS46 KPDT 202300
TAFALW
TAF
KALW 202325Z 2100/2124 25012G20KT P6SM FEW060 FEW200
     FM210400 18008KT P6SM SKC
     FM211000 19009KT P6SM SCT040 SCT080
     FM211800 24010G18KT P6SM SCT080 SCT250=



000
FTUS46 KPDT 202300
TAFPSC
TAF
KPSC 202325Z 2100/2124 21010G18KT P6SM FEW070
     FM210300 25010KT P6SM SCT080
     FM210800 21005KT P6SM FEW080
     FM211900 18006KT P6SM SCT250=



000
FTUS46 KPDT 202300
TAFRDM
TAF
KRDM 202325Z 2100/2124 31012G20KT P6SM FEW050 SCT180
     FM210300 28010KT P6SM SKC
     FM210600 VRB03KT P6SM SKC
     FM211900 31010G18KT P6SM BKN250=



000
FTUS46 KPDT 202300
TAFYKM
TAF
KYKM 202325Z 2100/2124 34008G16KT P6SM FEW060
     FM210200 31008KT P6SM SKC
     FM211200 28005KT P6SM SKC
     FM211800 VRB05KT P6SM SCT250=



000
FTUS46 KPDT 202300
TAFDLS
TAF
KDLS 202325Z 2100/2124 30022G30KT P6SM FEW070 FEW200
     FM210400 31014G24KT P6SM SKC
     FM210800 30010KT P6SM SKC
     FM211600 31010G18KT P6SM FEW250
     FM211900 32016G24KT P6SM SCT250=



000
FTUS46 KPDT 202300
TAFPDT
TAF
KPDT 202325Z 2100/2124 28015G24KT P6SM FEW060 FEW200
     FM210200 27014G22KT P6SM SKC
     FM210600 24011KT P6SM SCT080
     FM211000 19007KT P6SM SCT080
     FM211800 28010G18KT P6SM FEW080 SCT250=



000
FTUS46 KPDT 202100 AAB
TAFDLS
TAF AMD
KDLS 202156Z 2022/2118 30023G31KT P6SM FEW070 FEW200
     FM210400 31012G20KT P6SM SKC
     FM210800 30010KT P6SM SKC
     FM211700 31010G18KT P6SM SKC=



000
FTUS46 KPDT 201900 AAA
TAFDLS
TAF AMD
KDLS 201949Z 2020/2118 30016G23KT P6SM FEW070 FEW150 SCT200
     FM202200 31018G26KT P6SM FEW070 SCT200
     FM210400 31012G20KT P6SM SKC
     FM210800 30010KT P6SM SKC
     FM211700 31010G18KT P6SM SKC=



000
FTUS46 KPDT 201700
TAFYKM
TAF
KYKM 201731Z 2018/2118 33010KT P6SM BKN200
     FM202100 34008KT P6SM FEW060 SCT200
     FM210200 31008KT P6SM SKC
     FM211200 28005KT P6SM SKC=



000
FTUS46 KPDT 201700
TAFPDT
TAF
KPDT 201731Z 2018/2118 25015G25KT P6SM FEW050 OVC200
     FM202100 28016G26KT P6SM FEW070 SCT200
     FM210200 27014KT P6SM SKC
     FM210500 24011KT P6SM SKC
     FM211000 19007KT P6SM FEW040=



000
FTUS46 KPDT 201700
TAFRDM
TAF
KRDM 201731Z 2018/2118 VRB05KT P6SM SCT045 SCT150
     FM202000 32010G18KT P6SM FEW050 SCT130
     FM210300 31011KT P6SM SKC
     FM210600 VRB03KT P6SM SKC=



000
FTUS46 KPDT 201700
TAFALW
TAF
KALW 201731Z 2018/2118 22012G20KT P6SM FEW050 OVC200
     FM202100 23014G22KT P6SM FEW070 SCT200
     FM210400 18008KT P6SM SKC
     FM211000 19009KT P6SM FEW040=



000
FTUS46 KPDT 201700
TAFPSC
TAF
KPSC 201731Z 2018/2118 23010KT P6SM OVC200
     FM202000 26011KT P6SM BKN200
     FM210000 23008KT P6SM SKC
     FM210300 27008KT P6SM SCT080
     FM210800 20004KT P6SM FEW080=



000
FTUS46 KPDT 201700
TAFDLS
TAF
KDLS 201731Z 2018/2118 31018G26KT P6SM BKN200
     FM202000 31020G28KT P6SM FEW070 SCT200
     FM210400 31014G20KT P6SM SKC
     FM210800 31011KT P6SM SKC=



000
FTUS46 KPDT 201500 AAA
TAFDLS
TAF AMD
KDLS 201552Z 2016/2112 30014G22KT P6SM SCT200
     FM201800 31018G26KT P6SM SCT200
     FM202000 31020G28KT P6SM SKC
     FM210400 31014G20KT P6SM SKC
     FM210800 31011KT P6SM SKC=



000
FTUS46 KPDT 201100
TAFPSC
TAF
KPSC 201123Z 2012/2112 24009KT P6SM SCT090
     FM201800 26011KT P6SM SKC=



000
FTUS46 KPDT 201100
TAFRDM
TAF
KRDM 201123Z 2012/2112 VRB05KT P6SM SCT060
     FM202000 32010G18KT P6SM SKC
     FM210300 31011KT P6SM SKC
     FM210600 VRB03KT P6SM SKC=



000
FTUS46 KPDT 201100
TAFPDT
TAF
KPDT 201123Z 2012/2112 25015KT P6SM BKN080
     FM201600 26015G25KT P6SM SCT080
     FM202000 28015G24KT P6SM SKC
     FM210500 24011KT P6SM SKC=



000
FTUS46 KPDT 201100
TAFYKM
TAF
KYKM 201123Z 2012/2112 28004KT P6SM SCT080 BKN200
     FM201800 31010KT P6SM SKC=



000
FTUS46 KPDT 201100
TAFALW
TAF
KALW 201123Z 2012/2112 20011KT P6SM SCT070
     FM201500 22014KT P6SM SCT080
     FM202000 23014KT P6SM SKC
     FM210500 18011KT P6SM SKC=



000
FTUS46 KPDT 201100
TAFDLS
TAF
KDLS 201123Z 2012/2112 30015G25KT P6SM SCT200
     FM201700 31020G30KT P6SM SKC
     FM210400 31015G20KT P6SM SKC=



000
FTUS46 KPDT 200800 AAA
TAFPSC
TAF AMD
KPSC 200817Z 2008/2106 24007KT P6SM SCT090
     FM201200 24009KT P6SM SCT090
     FM201800 26012KT P6SM SKC=



000
FTUS46 KPDT 200500
TAFRDM
TAF
KRDM 200523Z 2006/2106 31006KT P6SM SCT070
     FM201800 32010G18KT P6SM SKC=



000
FTUS46 KPDT 200500
TAFDLS
TAF
KDLS 200523Z 2006/2106 30013G20KT P6SM SCT080
     FM201700 31020G28KT P6SM SKC=



000
FTUS46 KPDT 200500
TAFPDT
TAF
KPDT 200523Z 2006/2106 27015G24KT P6SM BKN080
      TEMPO 2006/2008 -SHRA
     FM201400 26014KT P6SM SCT080
     FM201900 28015G24KT P6SM SKC=



000
FTUS46 KPDT 200500
TAFPSC
TAF
KPSC 200523Z 2006/2106 26012KT P6SM BKN090
     FM201200 24009KT P6SM SCT090
     FM201800 26012KT P6SM SKC=



000
FTUS46 KPDT 200500
TAFALW
TAF
KALW 200523Z 2006/2106 20013KT P6SM BKN080
      TEMPO 2006/2008 -SHRA
     FM201500 22014KT P6SM SCT080
     FM202000 23014KT P6SM SKC=



000
FTUS46 KPDT 200500
TAFYKM
TAF
KYKM 200523Z 2006/2106 30010KT P6SM SCT100
     FM201800 31010KT P6SM SKC=



000
FTUS46 KPDT 200400 AAA
TAFALW
TAF AMD
KALW 200402Z 2004/2024 22012KT P6SM BKN080
      TEMPO 2004/2008 -SHRA
     FM201100 19010KT P6SM FEW070
     FM201800 23012G20KT P6SM FEW070 SCT250=



000
FTUS46 KPDT 200400 AAA
TAFPDT
TAF AMD
KPDT 200401Z 2004/2024 27015G24KT P6SM BKN080
      TEMPO 2004/2008 -SHRA
     FM201100 22008KT P6SM FEW070
     FM201800 27016G24KT P6SM FEW070 SCT250=



000
FTUS46 KPDT 192300
TAFYKM
TAF
KYKM 192320Z 2000/2024 31010G18KT P6SM SCT070
     FM200300 32010KT P6SM SKC
     FM201500 29006KT P6SM SCT250
     FM202100 31007KT P6SM FEW070 FEW250=



000
FTUS46 KPDT 192300
TAFDLS
TAF
KDLS 192320Z 2000/2024 30022G32KT P6SM SCT070
     FM200400 30018G26KT P6SM SKC
     FM200700 31014G22KT P6SM SKC
     FM201500 30015G22KT P6SM SCT250
     FM201800 31020G28KT P6SM SCT200 BKN250=



000
FTUS46 KPDT 192300
TAFPSC
TAF
KPSC 192320Z 2000/2024 24013G20KT P6SM FEW150 SCT200
     FM200400 25011KT P6SM SCT080 BKN100
     FM201100 22008KT P6SM SKC
     FM201800 23010G18KT P6SM FEW080 SCT250=



000
FTUS46 KPDT 192300
TAFRDM
TAF
KRDM 192320Z 2000/2024 33010G20KT P6SM FEW070
     FM200300 30012KT P6SM SKC
     FM200700 VRB05KT P6SM SCT050
     FM201100 18004KT P6SM BKN015
     FM201900 33010G18KT P6SM SCT070 SCT200=



000
FTUS46 KPDT 192300
TAFALW
TAF
KALW 192320Z 2000/2024 23014G22KT P6SM SCT150 BKN200
     FM200400 22012KT P6SM SCT070 BKN100
     FM201100 19010KT P6SM FEW070
     FM201800 23012G20KT P6SM FEW070 SCT250=



000
FTUS46 KPDT 192300
TAFPDT
TAF
KPDT 192320Z 2000/2024 27015G24KT P6SM FEW150 BKN200
     FM200800 25011KT P6SM SCT070 BKN100
     FM201100 22008KT P6SM FEW070
     FM201800 27016G24KT P6SM FEW070 SCT250=



000
FTUS46 KPDT 192300 AAD
TAFYKM
TAF AMD
KYKM 192303Z 1923/2018 32010G18KT P6SM VCTS SCT080CB BKN110
      TEMPO 1923/1924 VRB08G18KT 6SM -SHRA SCT060 BKN080 OVC110
     FM200000 32010KT P6SM VCSH SCT080 SCT110
     FM200300 32010KT P6SM SKC
     FM201500 29006KT P6SM SCT250=



000
FTUS46 KPDT 192200 AAC
TAFYKM
TAF AMD
KYKM 192244Z 1923/2018 25012G20KT P6SM VCTS SCT080CB BKN110
      TEMPO 1923/1924 27015G30KT 3SM SHRA SCT028 BKN080 OVC100
     FM200000 32010KT P6SM VCSH SCT080 SCT110
     FM200300 32010KT P6SM SKC
     FM201500 29006KT P6SM SCT250=



000
FTUS46 KPDT 192200 AAB
TAFYKM
TAF AMD
KYKM 192241Z 1923/2018 24012G20KT P6SM VCTS SCT080CB BKN110
      TEMPO 1923/1924 6SM SHRA BKN080 OVC100
     FM200000 32010KT P6SM VCSH SCT080 SCT110
     FM200300 32010KT P6SM SKC
     FM201500 29006KT P6SM SCT250=



000
FTUS46 KPDT 192100 AAA
TAFYKM
TAF AMD
KYKM 192139Z 1922/2018 32009KT P6SM SCT070
     FM192300 31010G18KT P6SM SCT070
     FM200300 32010KT P6SM SKC
     FM201500 29006KT P6SM SCT250=



000
FTUS46 KPDT 191700
TAFPSC
TAF
KPSC 191739Z 1918/2018 22008KT P6SM SCT150 BKN200
     FM192100 24013G20KT P6SM FEW150 SCT200
     FM200400 25011KT P6SM SCT080 BKN100
     FM201100 22008KT P6SM SKC=



000
FTUS46 KPDT 191700
TAFDLS
TAF
KDLS 191739Z 1918/2018 32020G29KT P6SM FEW070 SCT200
     FM192200 31024G32KT P6SM SCT070 SCT200
     FM200400 30018G26KT P6SM SKC
     FM200700 31014G22KT P6SM SKC=



000
FTUS46 KPDT 191700
TAFALW
TAF
KALW 191739Z 1918/2018 23014G22KT P6SM SCT150 BKN200
     FM200400 22012KT P6SM SCT070 BKN100
     FM201100 19010KT P6SM FEW070=



000
FTUS46 KPDT 191700
TAFYKM
TAF
KYKM 191739Z 1918/2018 28004KT P6SM BKN200
     FM192000 30012G20KT P6SM SCT200
     FM192300 31012G22KT P6SM SCT070
     FM200500 32010KT P6SM SKC=



000
FTUS46 KPDT 191700
TAFPDT
TAF
KPDT 191739Z 1918/2018 27015G24KT P6SM FEW150 BKN200
     FM200800 25011KT P6SM SCT070 BKN100
     FM201100 22008KT P6SM FEW070=



000
FTUS46 KPDT 191700
TAFRDM
TAF
KRDM 191739Z 1918/2018 30010KT P6SM BKN200
     FM192000 31012G20KT P6SM SCT200
     FM192200 32014G24KT P6SM FEW070 FEW200
     FM200300 30012KT P6SM SKC
     FM200700 VRB05KT P6SM SKC=



000
FTUS46 KPDT 191100
TAFPSC
TAF
KPSC 191120Z 1912/2012 VRB04KT P6SM BKN200
     FM191600 22008KT P6SM BKN150
     FM192100 24013G20KT P6SM SCT120
     FM200400 25011KT P6SM SKC=



000
FTUS46 KPDT 191100
TAFDLS
TAF
KDLS 191120Z 1912/2012 30011KT P6SM SCT150 BKN250
     FM191700 31020G28KT P6SM SCT120
     FM200400 30014G20KT P6SM SKC=



000
FTUS46 KPDT 191100
TAFALW
TAF
KALW 191120Z 1912/2012 13007KT P6SM SKC
     FM191600 23014G22KT P6SM BKN150
     FM200400 20011KT P6SM SCT090=



000
FTUS46 KPDT 191100
TAFPDT
TAF
KPDT 191120Z 1912/2012 16006KT P6SM SKC
     FM191600 27015G24KT P6SM BKN150
     FM200800 25011KT P6SM SCT090=



000
FTUS46 KPDT 191100
TAFRDM
TAF
KRDM 191120Z 1912/2012 VRB05KT P6SM BKN200
     FM191500 32010KT P6SM BKN150
     FM192000 32014G22KT P6SM SCT120
     FM200500 VRB05KT P6SM SKC=



000
FTUS46 KPDT 191100
TAFYKM
TAF
KYKM 191120Z 1912/2012 28004KT P6SM BKN150
     FM192000 30012G20KT P6SM SCT120
     FM200600 32006KT P6SM SKC=



000
FTUS46 KPDT 190500
TAFALW
TAF
KALW 190530Z 1906/2006 16007KT P6SM SKC
     FM191600 23014G22KT P6SM BKN150=



000
FTUS46 KPDT 190500
TAFPDT
TAF
KPDT 190530Z 1906/2006 16006KT P6SM SKC
     FM191600 27015G24KT P6SM BKN150=



000
FTUS46 KPDT 190500
TAFYKM
TAF
KYKM 190530Z 1906/2006 28007KT P6SM SKC
     FM190900 28008KT P6SM BKN150
     FM192000 30012G20KT P6SM SCT120=



000
FTUS46 KPDT 190500
TAFPSC
TAF
KPSC 190530Z 1906/2006 VRB05KT P6SM SKC
     FM191600 24014G22KT P6SM BKN150=



000
FTUS46 KPDT 190500
TAFDLS
TAF
KDLS 190530Z 1906/2006 31010KT P6SM SKC
     FM190900 31011KT P6SM BKN150
     FM191700 31020G28KT P6SM SCT120=



000
FTUS46 KPDT 190500
TAFRDM
TAF
KRDM 190530Z 1906/2006 VRB05KT P6SM SKC
     FM191500 32010KT P6SM BKN150
     FM192000 32014G22KT P6SM SCT120=



000
FTUS46 KPDT 190200 AAA
TAFRDM
TAF AMD
KRDM 190221Z 1902/1924 35010KT P6SM SCT120
     FM190600 17005KT P6SM FEW100 BKN200
     FM191900 33012G20KT P6SM SCT120 BKN150=



000
FTUS46 KPDT 182300
TAFDLS
TAF
KDLS 182320Z 1900/1924 30007KT P6SM SKC
     FM190600 31009KT P6SM SCT200
     FM191600 31012G22KT P6SM SCT150 BKN200
     FM192100 31020G30KT P6SM SCT150=



000
FTUS46 KPDT 182300
TAFPDT
TAF
KPDT 182320Z 1900/1924 32007KT P6SM SKC
     FM190400 16006KT P6SM SKC
     FM191800 27012G22KT P6SM SCT150 BKN200=



000
FTUS46 KPDT 182300
TAFALW
TAF
KALW 182320Z 1900/1924 26007KT P6SM SKC
     FM190400 16007KT P6SM SKC
     FM191200 20008KT P6SM SCT250
     FM191900 24012G20KT P6SM SCT150 BKN200=



000
FTUS46 KPDT 182300
TAFYKM
TAF
KYKM 182320Z 1900/1924 12005KT P6SM FEW080
     FM190400 29008KT P6SM SKC
     FM191200 27007KT P6SM SCT150 BKN200
     FM192100 30011KT P6SM FEW080 SCT150=



000
FTUS46 KPDT 182300
TAFPSC
TAF
KPSC 182320Z 1900/1924 VRB04KT P6SM SKC
     FM191700 24010KT P6SM SCT150 BKN200=



000
FTUS46 KPDT 182300
TAFRDM
TAF
KRDM 182320Z 1900/1924 34010KT P6SM SCT100 SCT200
     FM190100 35010KT P6SM VCTS SCT080CB BKN150
     FM190600 17005KT P6SM FEW100 BKN200
     FM191900 33012G20KT P6SM SCT120 BKN150=



000
FTUS46 KPDT 181700
TAFPSC
TAF
KPSC 181720Z 1818/1918 33007KT P6SM SKC
     FM190500 VRB03KT P6SM SKC
     FM191700 34005KT P6SM SCT150 BKN200=



000
FTUS46 KPDT 181700
TAFYKM
TAF
KYKM 181720Z 1818/1918 27006KT P6SM SKC
     FM182100 14007KT P6SM FEW080
     FM190400 29008KT P6SM SKC
     FM191200 27007KT P6SM SCT150 BKN200=



000
FTUS46 KPDT 181700
TAFPDT
TAF
KPDT 181720Z 1818/1918 VRB05KT P6SM SKC
     FM182100 33008KT P6SM SKC
     FM190400 16006KT P6SM SKC=



000
FTUS46 KPDT 181700
TAFDLS
TAF
KDLS 181720Z 1818/1918 34006KT P6SM SKC
     FM182100 33011KT P6SM SKC
     FM190600 31010KT P6SM SCT250
     FM191600 31012G20KT P6SM SCT150 BKN200=



000
FTUS46 KPDT 181700
TAFRDM
TAF
KRDM 181720Z 1818/1918 35010KT P6SM SCT100 SCT200
     FM190100 36010KT P6SM VCTS SCT080CB BKN150
     FM190600 17005KT P6SM FEW100 BKN200=



000
FTUS46 KPDT 181700
TAFALW
TAF
KALW 181720Z 1818/1918 VRB05KT P6SM SKC
     FM182100 26008KT P6SM SKC
     FM190400 16007KT P6SM SKC
     FM191200 20008KT P6SM SKC=



    US Dept of Commerce
    National Oceanic and Atmospheric Administration
    National Weather Service
    1325 East West Highway
    Silver Spring, MD 20910
    Page Author: NWS Internet Services Team
Disclaimer
Information Quality
Credits
Glossary
Privacy Policy
Freedom of Information Act (FOIA)
About Us
Career Opportunities